sensor_id;sensor_type;location;lat;lon;timestamp;pressure;altitude;pressure_sealevel;temperature;humidity
45793;BME280;31495;42.740;22.908;2022-07-31T00:00:05;92991.13;;;18.53;84.26
45793;BME280;31495;42.740;22.908;2022-07-31T00:01:05;92964.91;;;18.27;83.98
45793;BME280;31495;42.740;22.908;2022-07-31T00:02:04;92972.50;;;18.29;84.23
45793;BME280;31495;42.740;22.908;2022-07-31T00:03:04;92980.38;;;18.29;84.22
45793;BME280;31495;42.740;22.908;2022-07-31T00:04:04;92976.97;;;18.28;83.78
45793;BME280;31495;42.740;22.908;2022-07-31T00:05:03;92957.06;;;18.12;84.30
45793;BME280;31495;42.740;22.908;2022-07-31T00:06:03;92990.84;;;18.34;84.35
45793;BME280;31495;42.740;22.908;2022-07-31T00:07:02;92978.00;;;18.22;84.69
45793;BME280;31495;42.740;22.908;2022-07-31T00:08:03;92970.94;;;18.17;85.17
45793;BME280;31495;42.740;22.908;2022-07-31T00:09:03;92982.47;;;18.27;85.05
45793;BME280;31495;42.740;22.908;2022-07-31T00:10:03;92995.81;;;18.25;84.24
45793;BME280;31495;42.740;22.908;2022-07-31T00:11:03;92976.69;;;18.09;84.39
45793;BME280;31495;42.740;22.908;2022-07-31T00:12:03;92973.28;;;18.14;84.25
45793;BME280;31495;42.740;22.908;2022-07-31T00:13:03;92997.63;;;18.25;84.15
45793;BME280;31495;42.740;22.908;2022-07-31T00:14:02;92991.63;;;18.19;84.15
45793;BME280;31495;42.740;22.908;2022-07-31T00:15:04;92995.81;;;18.20;83.75
45793;BME280;31495;42.740;22.908;2022-07-31T00:16:04;92987.41;;;18.08;83.70
45793;BME280;31495;42.740;22.908;2022-07-31T00:17:03;93003.38;;;18.22;83.53
45793;BME280;31495;42.740;22.908;2022-07-31T00:18:03;92990.81;;;18.08;83.67
45793;BME280;31495;42.740;22.908;2022-07-31T00:19:02;92982.69;;;17.99;83.38
45793;BME280;31495;42.740;22.908;2022-07-31T00:20:03;93013.09;;;18.16;83.52
45793;BME280;31495;42.740;22.908;2022-07-31T00:21:03;93002.59;;;18.11;83.32
45793;BME280;31495;42.740;22.908;2022-07-31T00:22:02;92992.91;;;18.06;83.06
45793;BME280;31495;42.740;22.908;2022-07-31T00:23:03;92961.44;;;17.86;82.92
45793;BME280;31495;42.740;22.908;2022-07-31T00:24:03;92990.81;;;18.13;82.93
45793;BME280;31495;42.740;22.908;2022-07-31T00:25:03;92987.41;;;18.03;82.97
45793;BME280;31495;42.740;22.908;2022-07-31T00:26:02;92987.16;;;18.04;83.13
45793;BME280;31495;42.740;22.908;2022-07-31T00:27:02;92969.31;;;17.91;83.13
45793;BME280;31495;42.740;22.908;2022-07-31T00:28:03;93005.22;;;18.16;83.21
45793;BME280;31495;42.740;22.908;2022-07-31T00:29:02;92978.75;;;17.97;83.67
45793;BME280;31495;42.740;22.908;2022-07-31T00:30:02;93002.88;;;18.14;83.66
45793;BME280;31495;42.740;22.908;2022-07-31T00:31:02;92999.22;;;18.15;83.23
45793;BME280;31495;42.740;22.908;2022-07-31T00:32:03;92976.91;;;17.92;83.47
45793;BME280;31495;42.740;22.908;2022-07-31T00:33:02;92969.25;;;17.80;84.08
45793;BME280;31495;42.740;22.908;2022-07-31T00:34:02;92971.59;;;17.77;84.78
45793;BME280;31495;42.740;22.908;2022-07-31T00:35:02;92961.13;;;17.67;85.47
45793;BME280;31495;42.740;22.908;2022-07-31T00:36:02;92981.03;;;17.78;85.31
45793;BME280;31495;42.740;22.908;2022-07-31T00:37:02;93013.00;;;17.90;84.76
45793;BME280;31495;42.740;22.908;2022-07-31T00:38:01;92992.00;;;17.70;84.68
45793;BME280;31495;42.740;22.908;2022-07-31T00:39:01;92989.88;;;17.61;85.72
45793;BME280;31495;42.740;22.908;2022-07-31T00:40:00;92999.53;;;17.61;85.43
45793;BME280;31495;42.740;22.908;2022-07-31T00:40:59;93029.44;;;17.75;85.25
45793;BME280;31495;42.740;22.908;2022-07-31T00:42:00;92996.63;;;17.47;85.05
45793;BME280;31495;42.740;22.908;2022-07-31T00:43:00;92997.41;;;17.48;84.55
45793;BME280;31495;42.740;22.908;2022-07-31T00:43:59;93016.03;;;17.56;84.65
45793;BME280;31495;42.740;22.908;2022-07-31T00:44:59;93041.72;;;17.70;84.61
45793;BME280;31495;42.740;22.908;2022-07-31T00:45:59;93002.88;;;17.46;85.18
45793;BME280;31495;42.740;22.908;2022-07-31T00:46:59;93014.72;;;17.64;85.00
45793;BME280;31495;42.740;22.908;2022-07-31T00:47:58;93004.78;;;17.61;84.26
45793;BME280;31495;42.740;22.908;2022-07-31T00:48:58;93036.25;;;17.76;84.85
45793;BME280;31495;42.740;22.908;2022-07-31T00:49:57;93022.34;;;17.71;84.89
45793;BME280;31495;42.740;22.908;2022-07-31T00:50:57;93003.22;;;17.65;84.59
45793;BME280;31495;42.740;22.908;2022-07-31T00:51:56;93024.47;;;17.79;84.77
45793;BME280;31495;42.740;22.908;2022-07-31T00:52:56;93020.53;;;17.76;84.69
45793;BME280;31495;42.740;22.908;2022-07-31T00:53:55;93005.84;;;17.70;84.52
45793;BME280;31495;42.740;22.908;2022-07-31T00:54:55;92999.84;;;17.64;84.58
45793;BME280;31495;42.740;22.908;2022-07-31T00:55:55;93006.88;;;17.69;84.08
45793;BME280;31495;42.740;22.908;2022-07-31T00:56:55;93008.22;;;17.72;83.40
45793;BME280;31495;42.740;22.908;2022-07-31T00:57:55;93017.34;;;17.64;83.71
45793;BME280;31495;42.740;22.908;2022-07-31T00:58:54;93010.31;;;17.64;83.67
45793;BME280;31495;42.740;22.908;2022-07-31T00:59:54;93007.91;;;17.58;83.94
45793;BME280;31495;42.740;22.908;2022-07-31T01:00:53;92997.94;;;17.50;83.70
45793;BME280;31495;42.740;22.908;2022-07-31T01:01:54;93003.69;;;17.47;83.89
45793;BME280;31495;42.740;22.908;2022-07-31T01:02:54;93025.91;;;17.49;84.60
45793;BME280;31495;42.740;22.908;2022-07-31T01:03:53;92986.59;;;17.23;84.50
45793;BME280;31495;42.740;22.908;2022-07-31T01:04:53;92994.19;;;17.25;84.99
45793;BME280;31495;42.740;22.908;2022-07-31T01:05:52;92993.09;;;17.21;84.38
45793;BME280;31495;42.740;22.908;2022-07-31T01:06:52;93007.28;;;17.30;84.27
45793;BME280;31495;42.740;22.908;2022-07-31T01:07:52;92999.91;;;17.22;84.62
45793;BME280;31495;42.740;22.908;2022-07-31T01:08:52;93032.97;;;17.43;84.23
45793;BME280;31495;42.740;22.908;2022-07-31T01:09:52;93013.06;;;17.37;84.03
45793;BME280;31495;42.740;22.908;2022-07-31T01:10:58;93015.91;;;17.36;84.18
45793;BME280;31495;42.740;22.908;2022-07-31T01:12:36;93023.53;;;17.42;83.29
45793;BME280;31495;42.740;22.908;2022-07-31T01:13:47;93025.63;;;17.40;83.17
45793;BME280;31495;42.740;22.908;2022-07-31T01:14:53;93019.06;;;17.43;83.46
45793;BME280;31495;42.740;22.908;2022-07-31T01:15:55;93010.19;;;17.39;83.33
45793;BME280;31495;42.740;22.908;2022-07-31T01:16:56;93025.94;;;17.54;83.23
45793;BME280;31495;42.740;22.908;2022-07-31T01:17:58;93021.19;;;17.46;83.35
45793;BME280;31495;42.740;22.908;2022-07-31T01:19:01;93032.97;;;17.49;83.24
45793;BME280;31495;42.740;22.908;2022-07-31T01:20:03;93042.63;;;17.43;83.65
45793;BME280;31495;42.740;22.908;2022-07-31T01:21:10;93035.25;;;17.35;83.69
45793;BME280;31495;42.740;22.908;2022-07-31T01:25:55;93039.44;;;17.31;84.58
45793;BME280;31495;42.740;22.908;2022-07-31T01:27:05;93044.94;;;17.34;84.33
45793;BME280;31495;42.740;22.908;2022-07-31T01:29:30;93032.88;;;17.28;83.42
45793;BME280;31495;42.740;22.908;2022-07-31T01:30:34;93025.50;;;17.20;83.79
45793;BME280;31495;42.740;22.908;2022-07-31T01:31:39;93039.19;;;17.32;83.63
45793;BME280;31495;42.740;22.908;2022-07-31T01:32:45;93043.63;;;17.32;83.28
45793;BME280;31495;42.740;22.908;2022-07-31T01:33:47;93014.50;;;17.13;83.41
45793;BME280;31495;42.740;22.908;2022-07-31T01:34:52;93022.59;;;17.16;83.75
45793;BME280;31495;42.740;22.908;2022-07-31T01:35:54;93047.03;;;17.37;83.42
45793;BME280;31495;42.740;22.908;2022-07-31T01:37:01;93051.16;;;17.28;83.62
45793;BME280;31495;42.740;22.908;2022-07-31T01:38:09;93030.19;;;17.13;83.58
45793;BME280;31495;42.740;22.908;2022-07-31T01:39:10;93042.00;;;17.20;83.78
45793;BME280;31495;42.740;22.908;2022-07-31T01:40:14;93031.69;;;17.08;83.79
45793;BME280;31495;42.740;22.908;2022-07-31T01:41:16;93041.66;;;17.12;84.01
45793;BME280;31495;42.740;22.908;2022-07-31T01:42:20;93047.97;;;17.16;84.05
45793;BME280;31495;42.740;22.908;2022-07-31T01:43:29;93042.75;;;17.16;83.64
45793;BME280;31495;42.740;22.908;2022-07-31T01:44:33;93044.34;;;17.17;84.20
45793;BME280;31495;42.740;22.908;2022-07-31T01:45:38;93010.19;;;16.91;85.15
45793;BME280;31495;42.740;22.908;2022-07-31T01:46:40;93020.44;;;17.03;85.29
45793;BME280;31495;42.740;22.908;2022-07-31T01:47:40;93040.09;;;17.11;85.41
45793;BME280;31495;42.740;22.908;2022-07-31T01:48:42;93034.84;;;17.05;84.86
45793;BME280;31495;42.740;22.908;2022-07-31T01:49:43;93041.38;;;17.08;84.66
45793;BME280;31495;42.740;22.908;2022-07-31T01:50:46;93041.38;;;17.08;84.72
45793;BME280;31495;42.740;22.908;2022-07-31T01:51:46;93018.06;;;16.96;84.61
45793;BME280;31495;42.740;22.908;2022-07-31T01:52:48;93008.06;;;16.88;84.84
45793;BME280;31495;42.740;22.908;2022-07-31T01:53:49;93014.91;;;16.94;84.66
45793;BME280;31495;42.740;22.908;2022-07-31T01:54:49;93040.09;;;17.11;84.58
45793;BME280;31495;42.740;22.908;2022-07-31T01:55:52;93012.78;;;16.91;84.67
45793;BME280;31495;42.740;22.908;2022-07-31T01:56:53;93004.44;;;16.89;84.71
45793;BME280;31495;42.740;22.908;2022-07-31T01:57:55;93018.56;;;16.93;83.84
45793;BME280;31495;42.740;22.908;2022-07-31T01:58:55;93014.63;;;16.90;83.84
45793;BME280;31495;42.740;22.908;2022-07-31T02:00:04;93039.03;;;17.12;83.78
45793;BME280;31495;42.740;22.908;2022-07-31T02:01:06;93041.41;;;17.13;84.14
45793;BME280;31495;42.740;22.908;2022-07-31T02:02:07;93029.38;;;17.07;83.93
45793;BME280;31495;42.740;22.908;2022-07-31T02:03:08;93043.81;;;17.20;83.94
45793;BME280;31495;42.740;22.908;2022-07-31T02:04:08;93042.28;;;17.24;83.53
45793;BME280;31495;42.740;22.908;2022-07-31T02:05:09;93012.38;;;17.09;83.78
45793;BME280;31495;42.740;22.908;2022-07-31T02:06:11;93044.13;;;17.29;83.53
45793;BME280;31495;42.740;22.908;2022-07-31T02:07:12;93034.19;;;17.25;83.75
45793;BME280;31495;42.740;22.908;2022-07-31T02:08:14;93042.59;;;17.38;83.69
45793;BME280;31495;42.740;22.908;2022-07-31T02:09:16;93038.19;;;17.43;83.51
45793;BME280;31495;42.740;22.908;2022-07-31T02:10:17;93022.72;;;17.37;83.45
45793;BME280;31495;42.740;22.908;2022-07-31T02:11:19;93029.09;;;17.51;83.75
45793;BME280;31495;42.740;22.908;2022-07-31T02:12:19;93013.84;;;17.43;83.81
45793;BME280;31495;42.740;22.908;2022-07-31T02:13:21;93033.28;;;17.62;84.06
45793;BME280;31495;42.740;22.908;2022-07-31T02:14:22;93011.56;;;17.57;83.33
45793;BME280;31495;42.740;22.908;2022-07-31T02:15:23;93018.38;;;17.58;83.35
45793;BME280;31495;42.740;22.908;2022-07-31T02:16:23;93036.47;;;17.70;83.14
45793;BME280;31495;42.740;22.908;2022-07-31T02:17:26;93040.66;;;17.71;83.11
45793;BME280;31495;42.740;22.908;2022-07-31T02:18:26;93036.47;;;17.70;82.91
45793;BME280;31495;42.740;22.908;2022-07-31T02:19:28;93009.22;;;17.55;82.63
45793;BME280;31495;42.740;22.908;2022-07-31T02:20:28;93037.78;;;17.72;82.30
45793;BME280;31495;42.740;22.908;2022-07-31T02:21:29;93035.91;;;17.62;81.88
45793;BME280;31495;42.740;22.908;2022-07-31T02:22:29;93048.75;;;17.69;82.25
45793;BME280;31495;42.740;22.908;2022-07-31T02:23:29;93052.69;;;17.72;82.76
45793;BME280;31495;42.740;22.908;2022-07-31T02:24:28;93027.00;;;17.53;82.73
45793;BME280;31495;42.740;22.908;2022-07-31T02:25:28;93044.34;;;17.70;82.84
45793;BME280;31495;42.740;22.908;2022-07-31T02:26:30;93016.28;;;17.55;82.80
45793;BME280;31495;42.740;22.908;2022-07-31T02:27:30;92991.34;;;17.37;83.31
45793;BME280;31495;42.740;22.908;2022-07-31T02:28:30;93025.69;;;17.56;82.32
45793;BME280;31495;42.740;22.908;2022-07-31T02:29:31;93036.72;;;17.63;82.37
45793;BME280;31495;42.740;22.908;2022-07-31T02:30:32;93028.03;;;17.57;83.01
45793;BME280;31495;42.740;22.908;2022-07-31T02:31:34;93019.41;;;17.52;82.65
45793;BME280;31495;42.740;22.908;2022-07-31T02:32:34;93025.44;;;17.57;83.33
45793;BME280;31495;42.740;22.908;2022-07-31T02:33:35;93021.44;;;17.44;83.40
45793;BME280;31495;42.740;22.908;2022-07-31T02:34:36;93018.03;;;17.44;83.58
45793;BME280;31495;42.740;22.908;2022-07-31T02:35:37;93023.56;;;17.48;83.53
45793;BME280;31495;42.740;22.908;2022-07-31T02:36:38;93028.53;;;17.49;83.14
45793;BME280;31495;42.740;22.908;2022-07-31T02:37:38;93019.91;;;17.49;82.23
45793;BME280;31495;42.740;22.908;2022-07-31T02:38:42;93028.00;;;17.47;81.41
45793;BME280;31495;42.740;22.908;2022-07-31T02:39:42;93036.38;;;17.49;81.76
45793;BME280;31495;42.740;22.908;2022-07-31T02:40:42;93019.28;;;17.31;82.11
45793;BME280;31495;42.740;22.908;2022-07-31T02:41:43;93012.66;;;17.13;82.82
45793;BME280;31495;42.740;22.908;2022-07-31T02:42:44;93042.03;;;17.25;83.06
45793;BME280;31495;42.740;22.908;2022-07-31T02:43:45;93043.31;;;17.28;82.79
45793;BME280;31495;42.740;22.908;2022-07-31T02:44:45;93004.78;;;17.08;82.70
45793;BME280;31495;42.740;22.908;2022-07-31T02:45:46;93040.47;;;17.35;82.51
45793;BME280;31495;42.740;22.908;2022-07-31T02:46:46;93036.56;;;17.32;82.17
45793;BME280;31495;42.740;22.908;2022-07-31T02:47:46;93015.84;;;17.20;82.27
45793;BME280;31495;42.740;22.908;2022-07-31T02:48:47;93020.03;;;17.21;81.89
45793;BME280;31495;42.740;22.908;2022-07-31T02:49:47;93040.22;;;17.36;81.64
45793;BME280;31495;42.740;22.908;2022-07-31T02:50:48;93004.81;;;17.13;81.51
45793;BME280;31495;42.740;22.908;2022-07-31T02:51:47;93033.94;;;17.32;81.64
45793;BME280;31495;42.740;22.908;2022-07-31T02:52:47;93041.28;;;17.35;81.06
45793;BME280;31495;42.740;22.908;2022-07-31T02:53:46;93017.97;;;17.23;81.18
45793;BME280;31495;42.740;22.908;2022-07-31T02:54:46;93027.59;;;17.23;81.25
45793;BME280;31495;42.740;22.908;2022-07-31T02:55:47;93024.44;;;17.16;81.33
45793;BME280;31495;42.740;22.908;2022-07-31T02:56:48;93010.25;;;17.06;81.21
45793;BME280;31495;42.740;22.908;2022-07-31T02:57:47;93003.19;;;17.02;81.57
45793;BME280;31495;42.740;22.908;2022-07-31T02:58:47;93017.09;;;17.13;82.98
45793;BME280;31495;42.740;22.908;2022-07-31T02:59:46;93017.09;;;17.13;82.97
45793;BME280;31495;42.740;22.908;2022-07-31T03:00:46;93025.47;;;17.15;83.34
45793;BME280;31495;42.740;22.908;2022-07-31T03:01:46;93023.91;;;17.14;84.03
45793;BME280;31495;42.740;22.908;2022-07-31T03:02:46;93021.78;;;17.05;84.16
45793;BME280;31495;42.740;22.908;2022-07-31T03:03:46;93034.31;;;17.08;84.85
45793;BME280;31495;42.740;22.908;2022-07-31T03:04:45;93003.91;;;16.92;84.70
45793;BME280;31495;42.740;22.908;2022-07-31T03:05:45;93041.19;;;17.20;84.90
45793;BME280;31495;42.740;22.908;2022-07-31T03:06:44;93031.19;;;17.06;85.03
45793;BME280;31495;42.740;22.908;2022-07-31T03:07:44;93025.69;;;17.08;85.20
45793;BME280;31495;42.740;22.908;2022-07-31T03:08:43;93013.94;;;17.05;84.83
45793;BME280;31495;42.740;22.908;2022-07-31T03:09:43;93026.03;;;17.17;84.40
45793;BME280;31495;42.740;22.908;2022-07-31T03:10:42;93041.75;;;17.22;83.96
45793;BME280;31495;42.740;22.908;2022-07-31T03:11:42;93032.81;;;17.18;83.59
45793;BME280;31495;42.740;22.908;2022-07-31T03:12:44;93052.22;;;17.27;83.57
45793;BME280;31495;42.740;22.908;2022-07-31T03:13:45;93046.75;;;17.29;83.53
45793;BME280;31495;42.740;22.908;2022-07-31T03:14:45;93029.69;;;17.21;83.00
45793;BME280;31495;42.740;22.908;2022-07-31T03:15:46;93039.16;;;17.27;83.02
45793;BME280;31495;42.740;22.908;2022-07-31T03:16:47;93036.00;;;17.25;82.87
45793;BME280;31495;42.740;22.908;2022-07-31T03:17:48;93047.56;;;17.34;82.80
45793;BME280;31495;42.740;22.908;2022-07-31T03:18:49;93040.44;;;17.24;82.76
45793;BME280;31495;42.740;22.908;2022-07-31T03:19:49;93044.66;;;17.31;82.76
45793;BME280;31495;42.740;22.908;2022-07-31T03:20:50;93031.78;;;17.19;83.21
45793;BME280;31495;42.740;22.908;2022-07-31T03:21:51;93045.19;;;17.33;83.73
45793;BME280;31495;42.740;22.908;2022-07-31T03:22:50;93030.47;;;17.21;83.78
45793;BME280;31495;42.740;22.908;2022-07-31T03:23:51;93051.78;;;17.40;84.04
45793;BME280;31495;42.740;22.908;2022-07-31T03:24:51;93008.19;;;17.08;83.63
45793;BME280;31495;42.740;22.908;2022-07-31T03:25:52;93051.78;;;17.45;83.51
45793;BME280;31495;42.740;22.908;2022-07-31T03:26:52;93039.19;;;17.32;83.66
45793;BME280;31495;42.740;22.908;2022-07-31T03:27:52;93053.88;;;17.43;83.92
45793;BME280;31495;42.740;22.908;2022-07-31T03:28:52;93043.38;;;17.33;84.06
45793;BME280;31495;42.740;22.908;2022-07-31T03:29:52;93057.00;;;17.40;83.98
45793;BME280;31495;42.740;22.908;2022-07-31T03:30:52;93048.06;;;17.36;84.16
45793;BME280;31495;42.740;22.908;2022-07-31T03:31:53;93053.06;;;17.38;84.40
45793;BME280;31495;42.740;22.908;2022-07-31T03:32:53;93054.63;;;17.39;84.40
45793;BME280;31495;42.740;22.908;2022-07-31T03:33:53;93051.72;;;17.30;84.58
45793;BME280;31495;42.740;22.908;2022-07-31T03:34:53;93041.78;;;17.27;84.86
45793;BME280;31495;42.740;22.908;2022-07-31T03:35:52;93044.13;;;17.29;84.92
45793;BME280;31495;42.740;22.908;2022-07-31T03:36:52;93063.00;;;17.41;85.14
45793;BME280;31495;42.740;22.908;2022-07-31T03:37:52;93058.31;;;17.43;85.46
45793;BME280;31495;42.740;22.908;2022-07-31T03:38:51;93060.97;;;17.48;85.50
45793;BME280;31495;42.740;22.908;2022-07-31T03:39:51;93027.94;;;17.32;85.31
45793;BME280;31495;42.740;22.908;2022-07-31T03:40:50;93053.41;;;17.52;85.36
45793;BME280;31495;42.740;22.908;2022-07-31T03:41:51;93046.09;;;17.54;85.33
45793;BME280;31495;42.740;22.908;2022-07-31T03:42:53;93042.41;;;17.50;84.57
45793;BME280;31495;42.740;22.908;2022-07-31T03:43:54;93033.50;;;17.45;84.66
45793;BME280;31495;42.740;22.908;2022-07-31T03:44:54;93027.72;;;17.38;84.50
45793;BME280;31495;42.740;22.908;2022-07-31T03:45:54;93036.59;;;17.42;84.47
45793;BME280;31495;42.740;22.908;2022-07-31T03:46:54;93028.22;;;17.40;84.66
45793;BME280;31495;42.740;22.908;2022-07-31T03:47:53;93030.88;;;17.45;84.49
45793;BME280;31495;42.740;22.908;2022-07-31T03:48:53;93021.97;;;17.41;84.35
45793;BME280;31495;42.740;22.908;2022-07-31T03:49:53;93061.84;;;17.69;84.50
45793;BME280;31495;42.740;22.908;2022-07-31T03:50:53;93058.47;;;17.74;84.19
45793;BME280;31495;42.740;22.908;2022-07-31T03:51:53;93042.19;;;17.61;84.19
45793;BME280;31495;42.740;22.908;2022-07-31T03:52:53;93051.16;;;17.76;84.54
45793;BME280;31495;42.740;22.908;2022-07-31T03:53:53;93053.78;;;17.76;84.29
45793;BME280;31495;42.740;22.908;2022-07-31T03:54:53;93027.03;;;17.69;84.21
45793;BME280;31495;42.740;22.908;2022-07-31T03:55:54;93034.13;;;17.73;84.20
45793;BME280;31495;42.740;22.908;2022-07-31T03:56:56;93054.38;;;17.88;84.42
45793;BME280;31495;42.740;22.908;2022-07-31T03:57:57;93033.88;;;17.75;83.95
45793;BME280;31495;42.740;22.908;2022-07-31T03:58:57;93023.66;;;17.68;84.06
45793;BME280;31495;42.740;22.908;2022-07-31T03:59:58;93028.91;;;17.73;84.17
45793;BME280;31495;42.740;22.908;2022-07-31T04:00:59;93027.06;;;17.79;83.93
45793;BME280;31495;42.740;22.908;2022-07-31T04:01:59;93022.13;;;17.77;83.99
45793;BME280;31495;42.740;22.908;2022-07-31T04:03:05;93037.91;;;17.93;84.01
45793;BME280;31495;42.740;22.908;2022-07-31T04:04:05;93048.41;;;18.13;83.61
45793;BME280;31495;42.740;22.908;2022-07-31T04:05:05;93016.97;;;17.98;83.71
45793;BME280;31495;42.740;22.908;2022-07-31T04:06:05;93050.56;;;18.27;83.19
45793;BME280;31495;42.740;22.908;2022-07-31T04:07:04;93049.50;;;18.28;82.61
45793;BME280;31495;42.740;22.908;2022-07-31T04:08:08;93042.44;;;18.33;81.74
45793;BME280;31495;42.740;22.908;2022-07-31T04:09:07;93053.97;;;18.37;81.96
45793;BME280;31495;42.740;22.908;2022-07-31T04:10:07;93030.38;;;18.27;82.25
45793;BME280;31495;42.740;22.908;2022-07-31T04:11:07;93039.84;;;18.33;82.32
45793;BME280;31495;42.740;22.908;2022-07-31T04:12:06;93047.44;;;18.40;82.63
45793;BME280;31495;42.740;22.908;2022-07-31T04:13:05;93034.34;;;18.40;82.10
45793;BME280;31495;42.740;22.908;2022-07-31T04:14:05;93012.31;;;18.36;81.80
45793;BME280;31495;42.740;22.908;2022-07-31T04:15:05;93015.75;;;18.42;81.29
45793;BME280;31495;42.740;22.908;2022-07-31T04:16:04;93045.88;;;18.54;81.16
45793;BME280;31495;42.740;22.908;2022-07-31T04:17:04;93041.94;;;18.42;81.38
45793;BME280;31495;42.740;22.908;2022-07-31T04:18:04;93044.25;;;18.38;81.18
45793;BME280;31495;42.740;22.908;2022-07-31T04:19:03;93031.16;;;18.23;81.57
45793;BME280;31495;42.740;22.908;2022-07-31T04:20:04;93025.16;;;18.22;81.53
45793;BME280;31495;42.740;22.908;2022-07-31T04:21:03;93037.97;;;18.29;81.43
45793;BME280;31495;42.740;22.908;2022-07-31T04:22:03;93037.47;;;18.27;80.83
45793;BME280;31495;42.740;22.908;2022-07-31T04:23:02;93050.56;;;18.32;80.67
45793;BME280;31495;42.740;22.908;2022-07-31T04:24:02;93051.09;;;18.34;80.51
45793;BME280;31495;42.740;22.908;2022-07-31T04:25:04;93053.19;;;18.32;80.81
45793;BME280;31495;42.740;22.908;2022-07-31T04:26:04;93042.16;;;18.25;81.22
45793;BME280;31495;42.740;22.908;2022-07-31T04:27:03;93050.84;;;18.46;81.43
45793;BME280;31495;42.740;22.908;2022-07-31T04:28:03;93029.63;;;18.32;81.40
45793;BME280;31495;42.740;22.908;2022-07-31T04:29:03;93017.28;;;18.32;81.46
45793;BME280;31495;42.740;22.908;2022-07-31T04:30:03;93047.97;;;18.47;81.65
45793;BME280;31495;42.740;22.908;2022-07-31T04:31:03;93032.25;;;18.42;81.30
45793;BME280;31495;42.740;22.908;2022-07-31T04:32:03;93056.63;;;18.58;81.09
45793;BME280;31495;42.740;22.908;2022-07-31T04:33:03;93030.69;;;18.46;80.89
45793;BME280;31495;42.740;22.908;2022-07-31T04:34:02;93045.59;;;18.51;81.46
45793;BME280;31495;42.740;22.908;2022-07-31T04:35:03;93056.38;;;18.65;81.33
45793;BME280;31495;42.740;22.908;2022-07-31T04:36:03;93065.00;;;18.65;81.41
45793;BME280;31495;42.740;22.908;2022-07-31T04:37:03;93055.31;;;18.61;80.22
45793;BME280;31495;42.740;22.908;2022-07-31T04:38:02;93052.69;;;18.66;80.15
45793;BME280;31495;42.740;22.908;2022-07-31T04:39:03;93029.88;;;18.51;80.58
45793;BME280;31495;42.740;22.908;2022-07-31T04:40:03;93062.91;;;18.67;79.13
45793;BME280;31495;42.740;22.908;2022-07-31T04:41:03;93045.88;;;18.60;79.18
45793;BME280;31495;42.740;22.908;2022-07-31T04:42:02;93037.47;;;18.52;79.77
45793;BME280;31495;42.740;22.908;2022-07-31T04:43:01;93025.44;;;18.46;79.87
45793;BME280;31495;42.740;22.908;2022-07-31T04:44:01;93038.00;;;18.49;80.26
45793;BME280;31495;42.740;22.908;2022-07-31T04:45:00;93033.31;;;18.46;80.17
45793;BME280;31495;42.740;22.908;2022-07-31T04:46:00;93044.31;;;18.59;80.50
45793;BME280;31495;42.740;22.908;2022-07-31T04:47:04;93027.78;;;18.43;80.97
45793;BME280;31495;42.740;22.908;2022-07-31T04:48:04;93030.41;;;18.43;81.02
45793;BME280;31495;42.740;22.908;2022-07-31T04:49:04;93028.28;;;18.34;81.16
45793;BME280;31495;42.740;22.908;2022-07-31T04:50:03;93036.19;;;18.50;79.03
45793;BME280;31495;42.740;22.908;2022-07-31T04:51:04;93057.91;;;18.61;79.67
45793;BME280;31495;42.740;22.908;2022-07-31T04:52:04;93042.72;;;18.47;79.94
45793;BME280;31495;42.740;22.908;2022-07-31T04:53:03;93046.41;;;18.51;80.79
45793;BME280;31495;42.740;22.908;2022-07-31T04:54:03;93044.03;;;18.50;80.25
45793;BME280;31495;42.740;22.908;2022-07-31T04:55:03;93057.66;;;18.67;79.83
45793;BME280;31495;42.740;22.908;2022-07-31T04:56:03;93058.69;;;18.56;79.82
45793;BME280;31495;42.740;22.908;2022-07-31T04:57:21;93036.97;;;18.50;80.05
45793;BME280;31495;42.740;22.908;2022-07-31T04:58:21;93049.03;;;18.62;80.97
45793;BME280;31495;42.740;22.908;2022-07-31T04:59:22;93046.91;;;18.64;79.73
45793;BME280;31495;42.740;22.908;2022-07-31T05:00:21;93051.38;;;18.63;79.92
45793;BME280;31495;42.740;22.908;2022-07-31T05:01:21;93052.16;;;18.64;80.47
45793;BME280;31495;42.740;22.908;2022-07-31T05:02:21;93051.13;;;18.60;79.86
45793;BME280;31495;42.740;22.908;2022-07-31T05:03:20;93041.16;;;18.51;80.74
45793;BME280;31495;42.740;22.908;2022-07-31T05:04:20;93031.44;;;18.31;79.70
45793;BME280;31495;42.740;22.908;2022-07-31T05:05:19;93046.66;;;18.45;80.69
45793;BME280;31495;42.740;22.908;2022-07-31T05:06:18;93022.78;;;18.21;81.97
45793;BME280;31495;42.740;22.908;2022-07-31T05:07:18;93024.13;;;18.28;82.68
45793;BME280;31495;42.740;22.908;2022-07-31T05:08:18;93045.84;;;18.39;82.10
45793;BME280;31495;42.740;22.908;2022-07-31T05:09:20;93048.22;;;18.46;82.66
45793;BME280;31495;42.740;22.908;2022-07-31T05:10:23;93014.16;;;18.20;83.01
45793;BME280;31495;42.740;22.908;2022-07-31T05:11:42;93032.22;;;18.37;83.48
45793;BME280;31495;42.740;22.908;2022-07-31T05:12:41;93013.63;;;18.28;82.96
45793;BME280;31495;42.740;22.908;2022-07-31T05:13:40;93029.34;;;18.44;83.23
45793;BME280;31495;42.740;22.908;2022-07-31T05:14:40;93035.66;;;18.63;83.00
45793;BME280;31495;42.740;22.908;2022-07-31T05:15:39;93035.41;;;18.65;82.63
45793;BME280;31495;42.740;22.908;2022-07-31T05:16:39;93045.13;;;18.85;82.06
45793;BME280;31495;42.740;22.908;2022-07-31T05:17:38;93044.34;;;18.95;82.05
45793;BME280;31495;42.740;22.908;2022-07-31T05:18:38;93030.72;;;18.87;82.28
45793;BME280;31495;42.740;22.908;2022-07-31T05:19:37;93049.31;;;19.06;81.40
45793;BME280;31495;42.740;22.908;2022-07-31T05:20:36;93036.97;;;19.02;81.70
45793;BME280;31495;42.740;22.908;2022-07-31T05:21:36;93045.63;;;19.13;81.17
45793;BME280;31495;42.740;22.908;2022-07-31T05:22:36;93043.53;;;19.09;82.15